Time;durP1;ratioP1;P1;durP2;ratioP2;P2;SDS_P1;SDS_P2;PMS_P1;PMS_P2;Temp;Humidity;BMP_temperature;BMP_pressure;BME280_temperature;BME280_humidity;BME280_pressure;Samples;Min_cycle;Max_cycle;Signal;HPM_P1;HPM_P2
2023/07/09 00:02:33;;;;;;;10.40;5.00;;;;;;;18.90;70.88;100985.72;222908;1267;139891;-81
2023/07/09 00:07:33;;;;;;;8.90;4.60;;;;;;;18.87;70.98;100983.92;223494;1265;138301;-84
2023/07/09 00:12:34;;;;;;;9.40;4.60;;;;;;;18.86;71.13;100985.14;222893;1265;140582;-83
2023/07/09 00:17:34;;;;;;;9.50;4.80;;;;;;;18.83;71.23;100986.35;223598;1265;96495;-84
2023/07/09 00:22:35;;;;;;;8.00;4.40;;;;;;;18.79;71.46;100988.80;222794;1269;140224;-84
2023/07/09 00:27:35;;;;;;;9.50;4.10;;;;;;;18.75;71.60;100989.75;223424;1267;138149;-84
2023/07/09 00:32:43;;;;;;;11.80;4.80;;;;;;;18.71;71.82;100991.61;222829;1267;140260;-85
2023/07/09 00:37:44;;;;;;;9.00;4.30;;;;;;;18.68;71.85;100985.92;223424;1267;139060;-84
2023/07/09 00:42:47;;;;;;;8.10;4.10;;;;;;;18.64;71.81;100979.20;222912;1265;140270;-84
2023/07/09 00:47:56;;;;;;;7.20;4.00;;;;;;;18.60;72.13;100977.66;223524;1265;96327;-84
2023/07/09 00:53:02;;;;;;;9.30;4.30;;;;;;;18.57;72.11;100975.64;222949;1265;140175;-84
2023/07/09 00:58:07;;;;;;;12.30;4.70;;;;;;;18.53;72.34;100977.60;223342;1266;138802;-84
2023/07/09 01:03:11;;;;;;;8.30;4.30;;;;;;;18.46;72.75;100972.52;222783;1266;140525;-84
2023/07/09 01:08:12;;;;;;;9.90;4.70;;;;;;;18.39;73.28;100962.58;223455;1265;139113;-85
2023/07/09 01:13:13;;;;;;;9.20;4.30;;;;;;;18.30;73.37;100956.20;222872;1266;140682;-84
2023/07/09 01:18:14;;;;;;;9.60;4.70;;;;;;;18.23;73.61;100957.94;223434;1265;138913;-85
2023/07/09 01:23:16;;;;;;;10.30;4.80;;;;;;;18.16;74.04;100957.95;223170;1264;140964;-85
2023/07/09 01:28:17;;;;;;;8.60;4.30;;;;;;;18.10;74.39;100959.38;223641;1264;138800;-84
2023/07/09 01:33:18;;;;;;;9.70;4.20;;;;;;;18.04;74.41;100964.52;222968;1265;140595;-85
2023/07/09 01:38:20;;;;;;;10.00;5.10;;;;;;;18.00;74.62;100962.52;223342;1265;138652;-85
2023/07/09 01:43:20;;;;;;;10.10;5.00;;;;;;;17.96;74.75;100967.89;222930;1265;142103;-85
2023/07/09 01:48:24;;;;;;;7.80;4.10;;;;;;;17.92;75.09;100972.70;223390;1265;139864;-84
2023/07/09 01:53:26;;;;;;;8.50;4.60;;;;;;;17.88;75.09;100966.45;222982;1265;141009;-85
2023/07/09 01:58:30;;;;;;;9.50;5.30;;;;;;;17.85;75.39;100966.08;223399;1265;138723;-85
2023/07/09 02:03:31;;;;;;;10.20;4.60;;;;;;;17.80;75.67;100967.73;222872;1265;141186;-85
2023/07/09 02:08:32;;;;;;;8.20;4.60;;;;;;;17.75;75.85;100968.33;223374;1265;138920;-84
2023/07/09 02:13:32;;;;;;;8.90;5.30;;;;;;;17.70;76.44;100967.19;223098;1265;140035;-84
2023/07/09 02:18:34;;;;;;;11.10;5.00;;;;;;;17.64;76.89;100963.42;223542;1265;139206;-84
2023/07/09 02:23:34;;;;;;;9.10;5.20;;;;;;;17.59;77.46;100964.91;222975;1265;140694;-84
2023/07/09 02:28:35;;;;;;;9.20;4.70;;;;;;;17.54;77.64;100957.15;223367;1265;138622;-85
2023/07/09 02:33:35;;;;;;;8.90;5.00;;;;;;;17.49;77.83;100965.48;222891;1265;140839;-85
2023/07/09 02:38:36;;;;;;;9.50;4.10;;;;;;;17.43;78.05;100975.61;223415;1265;138674;-84
2023/07/09 02:43:36;;;;;;;14.60;5.40;;;;;;;17.34;78.08;100984.01;223001;1266;141956;-84
2023/07/09 02:48:37;;;;;;;11.10;4.50;;;;;;;17.24;78.08;100993.92;223413;1265;138990;-85
2023/07/09 02:53:37;;;;;;;10.00;5.00;;;;;;;17.15;78.11;100997.18;222935;1265;141239;-84
2023/07/09 02:58:37;;;;;;;9.30;5.00;;;;;;;17.05;78.45;100995.01;223423;1265;138850;-84
2023/07/09 03:03:38;;;;;;;12.50;5.30;;;;;;;16.92;79.21;100995.65;222975;1265;141076;-86
2023/07/09 03:08:38;;;;;;;9.50;4.80;;;;;;;16.84;78.94;100999.18;223442;1265;138972;-85
2023/07/09 03:13:39;;;;;;;10.50;5.20;;;;;;;16.80;78.72;100995.16;222827;1265;140498;-85
2023/07/09 03:18:40;;;;;;;8.20;4.40;;;;;;;16.74;79.38;100997.59;223359;1265;138977;-85
2023/07/09 03:23:41;;;;;;;9.30;5.00;;;;;;;16.69;79.75;100997.52;222936;1265;140648;-85
2023/07/09 03:28:41;;;;;;;9.10;4.40;;;;;;;16.65;79.93;100998.25;223610;1264;139208;-85
2023/07/09 03:33:42;;;;;;;9.90;5.00;;;;;;;16.60;80.68;100998.27;222952;1264;141042;-85
2023/07/09 03:38:42;;;;;;;12.70;4.70;;;;;;;16.58;81.52;100997.33;223518;1265;138758;-86
2023/07/09 03:43:43;;;;;;;8.20;4.40;;;;;;;16.55;81.53;101010.84;222912;1265;140851;-84
2023/07/09 03:48:43;;;;;;;7.60;4.50;;;;;;;16.56;81.96;101018.54;223445;1265;138953;-84
2023/07/09 03:53:44;;;;;;;8.10;4.60;;;;;;;16.54;82.86;101024.48;223058;1265;140345;-85
2023/07/09 03:58:44;;;;;;;10.50;4.90;;;;;;;16.55;82.80;101028.30;223321;1265;138484;-85
2023/07/09 04:03:45;;;;;;;8.40;4.70;;;;;;;16.54;82.88;101025.92;223039;1265;140489;-86
2023/07/09 04:08:45;;;;;;;8.70;4.40;;;;;;;16.54;83.43;101024.90;223569;1265;139214;-85
2023/07/09 04:13:46;;;;;;;8.20;4.30;;;;;;;16.54;83.47;101025.46;223036;1264;140834;-85
2023/07/09 04:18:46;;;;;;;9.90;4.30;;;;;;;16.55;83.84;101027.59;223588;1264;138791;-85
2023/07/09 04:23:47;;;;;;;9.00;4.70;;;;;;;16.58;84.04;101028.30;223134;1264;141265;-85
2023/07/09 04:28:48;;;;;;;8.30;4.40;;;;;;;16.63;84.01;101033.05;223498;1265;138552;-86
2023/07/09 04:33:48;;;;;;;9.40;4.10;;;;;;;16.69;84.15;101037.70;222893;1265;140799;-85
2023/07/09 04:38:49;;;;;;;10.70;4.80;;;;;;;16.77;84.15;101033.86;223503;1265;138820;-84
2023/07/09 04:43:49;;;;;;;9.30;4.60;;;;;;;16.85;83.68;101035.80;223045;1264;140852;-85
2023/07/09 04:48:50;;;;;;;11.50;4.70;;;;;;;16.93;83.92;101039.73;223633;1265;139151;-86
2023/07/09 04:53:51;;;;;;;9.50;4.90;;;;;;;17.01;84.04;101048.59;222977;1265;140912;-85
2023/07/09 04:58:52;;;;;;;10.50;5.20;;;;;;;17.09;84.45;101056.02;223678;1264;138600;-85
2023/07/09 05:03:54;;;;;;;8.70;4.60;;;;;;;17.15;84.43;101055.91;223072;1265;153779;-85
2023/07/09 05:08:55;;;;;;;9.90;4.50;;;;;;;17.25;84.37;101053.86;222944;1265;141721;-85
2023/07/09 05:13:55;;;;;;;8.50;4.20;;;;;;;17.36;84.23;101051.33;223501;1265;138899;-86
2023/07/09 05:18:56;;;;;;;7.80;4.20;;;;;;;17.52;83.86;101063.16;222895;1264;142244;-86
2023/07/09 05:23:56;;;;;;;8.60;4.00;;;;;;;17.73;84.05;101059.59;223647;1264;138737;-84
2023/07/09 05:28:57;;;;;;;7.70;3.90;;;;;;;18.07;83.49;101068.20;223198;1265;140442;-86
2023/07/09 05:33:59;;;;;;;8.30;4.20;;;;;;;18.56;82.76;101082.39;223572;1265;138937;-83
2023/07/09 05:38:59;;;;;;;8.60;3.90;;;;;;;19.16;81.29;101083.88;222990;1265;141675;-87
2023/07/09 05:44:00;;;;;;;8.90;3.70;;;;;;;19.95;80.93;101085.73;223412;1265;138924;-85
2023/07/09 05:49:00;;;;;;;8.40;3.50;;;;;;;20.71;77.15;101091.56;222902;1265;140955;-86
2023/07/09 05:54:01;;;;;;;8.20;3.60;;;;;;;21.36;74.44;101088.27;223549;1264;139515;-85
2023/07/09 05:59:02;;;;;;;8.60;3.50;;;;;;;22.16;72.39;101082.44;223131;1264;141312;-87
2023/07/09 06:04:03;;;;;;;8.20;3.20;;;;;;;23.01;70.29;101086.02;223457;1265;138877;-87
2023/07/09 06:09:04;;;;;;;5.80;2.60;;;;;;;23.81;66.41;101084.92;222940;1264;140684;-85
2023/07/09 06:14:04;;;;;;;8.00;2.70;;;;;;;24.34;63.04;101080.31;223619;1264;138664;-86
2023/07/09 06:19:05;;;;;;;5.80;2.60;;;;;;;24.97;60.55;101083.31;222988;1264;139559;-85
2023/07/09 06:24:07;;;;;;;10.70;3.00;;;;;;;25.58;58.06;101081.19;223495;1265;138282;-84
2023/07/09 06:29:07;;;;;;;7.10;2.40;;;;;;;25.93;55.61;101086.41;223193;1264;139862;-86
2023/07/09 06:34:09;;;;;;;5.30;2.50;;;;;;;26.26;56.21;101083.52;223472;1265;137891;-85
2023/07/09 06:39:09;;;;;;;6.40;2.50;;;;;;;26.89;52.87;101084.60;222987;1264;139765;-86
2023/07/09 06:44:09;;;;;;;6.10;2.10;;;;;;;27.23;52.73;101090.23;223629;1265;139420;-87
2023/07/09 06:49:10;;;;;;;6.70;2.50;;;;;;;28.14;53.14;101089.88;222992;1264;142128;-88
2023/07/09 06:54:12;;;;;;;4.00;1.90;;;;;;;28.74;50.05;101082.47;223398;1265;139257;-86
2023/07/09 06:59:13;;;;;;;4.60;2.00;;;;;;;29.10;48.63;101084.38;222972;1264;140392;-87
2023/07/09 07:04:15;;;;;;;6.50;2.30;;;;;;;29.40;46.77;101081.35;223593;1264;138671;-88
2023/07/09 07:09:16;;;;;;;3.90;2.10;;;;;;;29.77;46.70;101086.39;222937;1264;140715;-87
2023/07/09 07:14:16;;;;;;;5.30;2.10;;;;;;;30.11;45.81;101084.59;223455;1265;138225;-86
2023/07/09 07:19:17;;;;;;;3.90;1.70;;;;;;;30.45;43.58;101083.33;222962;1265;141536;-88
2023/07/09 07:24:17;;;;;;;3.60;2.20;;;;;;;30.64;43.23;101083.22;223372;1265;138484;-88
2023/07/09 07:29:18;;;;;;;3.80;2.00;;;;;;;30.50;41.72;101086.45;223026;1266;140551;-88
2023/07/09 07:34:18;;;;;;;3.80;2.10;;;;;;;30.46;41.94;101088.20;223487;1265;137759;-86
2023/07/09 07:39:18;;;;;;;5.40;2.10;;;;;;;30.41;40.49;101087.52;222928;1265;142122;-86
2023/07/09 07:44:19;;;;;;;5.00;2.20;;;;;;;30.25;40.81;101086.17;223486;1265;138486;-87
2023/07/09 07:49:19;;;;;;;4.90;2.50;;;;;;;30.53;40.73;101083.76;222947;1265;140314;-88
2023/07/09 07:54:20;;;;;;;4.70;2.00;;;;;;;30.68;40.53;101080.67;223652;1265;138190;-88
2023/07/09 07:59:20;;;;;;;3.10;1.80;;;;;;;31.13;38.98;101080.08;222982;1265;140186;-88
2023/07/09 08:04:20;;;;;;;4.20;2.00;;;;;;;31.02;38.61;101083.80;223453;1265;138045;-87
2023/07/09 08:09:21;;;;;;;5.40;2.50;;;;;;;30.92;39.57;101077.14;223051;1265;141359;-89
2023/07/09 08:14:23;;;;;;;5.40;2.30;;;;;;;31.56;40.10;101079.02;223505;1265;138224;-89
2023/07/09 08:19:24;;;;;;;3.90;2.10;;;;;;;32.51;39.51;101084.63;222939;1265;139614;-91
2023/07/09 08:24:24;;;;;;;4.10;1.80;;;;;;;33.19;36.90;101081.79;223659;1265;138668;-87
2023/07/09 08:29:25;;;;;;;4.40;2.20;;;;;;;33.46;37.57;101079.20;222993;1265;140307;-88
2023/07/09 08:34:25;;;;;;;4.20;2.50;;;;;;;34.26;36.97;101080.86;223489;1265;138867;-89
2023/07/09 08:39:25;;;;;;;5.00;2.10;;;;;;;34.73;35.89;101083.99;222946;1265;140217;-86
2023/07/09 08:44:37;;;;;;;5.20;2.10;;;;;;;35.36;36.03;101081.39;223427;1265;138059;-89
2023/07/09 08:49:50;;;;;;;4.40;2.00;;;;;;;36.21;34.68;101081.92;222828;1265;140866;-90
2023/07/09 08:54:53;;;;;;;4.30;2.50;;;;;;;36.64;32.01;101085.16;223422;1265;138101;-88
2023/07/09 09:00:01;;;;;;;5.30;2.60;;;;;;;36.64;32.56;101080.11;222884;1265;139949;-90
2023/07/09 09:05:05;;;;;;;5.80;2.40;;;;;;;37.32;32.34;101081.75;223739;1264;96327;-90
2023/07/09 09:10:17;;;;;;;6.50;2.30;;;;;;;38.04;31.70;101082.20;222970;1265;139528;-88
2023/07/09 09:15:20;;;;;;;4.80;2.40;;;;;;;38.62;30.48;101075.50;223459;1265;137750;-87
2023/07/09 09:20:22;;;;;;;4.10;2.40;;;;;;;39.03;29.56;101072.45;222849;1265;139766;-90
2023/07/09 09:25:29;;;;;;;4.00;2.10;;;;;;;38.96;28.22;101073.95;223420;1264;139039;-90
2023/07/09 09:30:30;;;;;;;4.50;2.50;;;;;;;39.04;29.03;101077.46;223022;1265;140401;-87
2023/07/09 09:35:34;;;;;;;5.40;2.40;;;;;;;39.58;27.80;101077.70;223540;1265;96571;-86
2023/07/09 09:40:35;;;;;;;7.30;2.70;;;;;;;39.65;27.67;101077.92;222893;1265;141004;-87
2023/07/09 09:45:41;;;;;;;3.80;2.20;;;;;;;39.65;26.78;101081.23;223566;1264;137866;-88
2023/07/09 09:50:43;;;;;;;4.00;2.30;;;;;;;39.87;27.31;101080.52;222823;1265;139998;-88
2023/07/09 09:55:45;;;;;;;4.20;2.70;;;;;;;40.42;26.57;101071.48;223537;1264;138519;-87
2023/07/09 10:00:55;;;;;;;4.50;2.50;;;;;;;40.79;26.00;101064.84;223115;1264;140421;-88
2023/07/09 10:05:59;;;;;;;4.50;2.30;;;;;;;40.42;24.27;101062.02;223509;1265;139116;-90
2023/07/09 10:11:19;;;;;;;6.80;2.30;;;;;;;39.78;24.96;101058.88;223015;1265;140661;-88
2023/07/09 10:16:19;;;;;;;3.50;2.30;;;;;;;40.27;24.69;101056.34;223577;1265;138124;-88
2023/07/09 10:21:38;;;;;;;4.90;2.40;;;;;;;40.71;24.94;101055.33;223178;1264;140164;-88
2023/07/09 10:26:56;;;;;;;4.60;2.80;;;;;;;41.23;24.61;101059.37;223443;1265;138098;-87
2023/07/09 10:32:23;;;;;;;3.80;2.40;;;;;;;40.98;23.19;101056.24;222854;1265;140669;-89
2023/07/09 10:37:27;;;;;;;4.40;2.60;;;;;;;39.86;22.73;101051.08;223235;1265;207563;-85
2023/07/09 10:42:35;;;;;;;3.90;2.30;;;;;;;39.22;24.32;101048.14;223064;1265;140858;-86
2023/07/09 10:47:43;;;;;;;4.60;2.60;;;;;;;39.96;23.86;101049.45;223718;1265;96463;-86
2023/07/09 10:52:47;;;;;;;3.60;2.30;;;;;;;40.83;23.29;101048.91;222802;1265;141376;-88
2023/07/09 10:57:59;;;;;;;3.30;2.10;;;;;;;41.27;22.92;101045.73;223608;1264;138702;-85
2023/07/09 11:03:11;;;;;;;3.20;2.00;;;;;;;40.99;22.58;101041.38;222931;1265;141109;-87
2023/07/09 11:08:42;;;;;;;4.70;2.10;;;;;;;40.89;23.40;101044.28;223378;1265;138606;-85
2023/07/09 11:13:50;;;;;;;3.50;2.40;;;;;;;41.23;23.58;101043.26;222897;1265;139588;-87
2023/07/09 11:18:58;;;;;;;4.60;2.10;;;;;;;41.36;23.37;101046.05;223491;1265;138834;-86
2023/07/09 11:24:00;;;;;;;2.50;2.00;;;;;;;41.44;22.73;101048.65;223348;1264;213754;-87
2023/07/09 11:29:06;;;;;;;3.20;2.10;;;;;;;41.34;23.08;101041.89;222972;1265;139921;-88
2023/07/09 11:34:07;;;;;;;3.80;2.20;;;;;;;41.60;23.14;101032.59;223375;1265;138590;-85
2023/07/09 11:39:36;;;;;;;3.20;2.00;;;;;;;41.36;22.32;101030.88;222876;1265;139565;-87
2023/07/09 11:44:47;;;;;;;4.70;2.40;;;;;;;41.34;22.20;101031.11;223578;1264;138829;-87
2023/07/09 11:50:00;;;;;;;3.50;2.00;;;;;;;41.08;23.46;101030.63;223071;1266;139991;-87
2023/07/09 11:55:38;;;;;;;5.10;2.40;;;;;;;41.48;23.68;101025.67;223429;1265;139433;-88
2023/07/09 12:00:42;;;;;;;4.50;2.00;;;;;;;41.27;22.18;101018.95;222822;1267;140131;-87
2023/07/09 12:05:50;;;;;;;5.10;2.00;;;;;;;40.06;22.86;101011.34;223678;1265;96335;-88
2023/07/09 12:10:50;;;;;;;4.20;2.20;;;;;;;40.14;23.16;101000.55;222922;1266;140653;-86
2023/07/09 12:15:51;;;;;;;3.70;1.90;;;;;;;38.79;22.94;101004.92;223393;1265;138738;-87
2023/07/09 12:20:53;;;;;;;5.60;2.10;;;;;;;37.40;23.88;101003.19;223067;1265;140955;-86
2023/07/09 12:25:54;;;;;;;5.60;2.50;;;;;;;36.94;25.09;100995.88;223740;1268;138671;-86
2023/07/09 12:30:55;;;;;;;3.80;2.10;;;;;;;36.55;24.84;100994.98;222922;1265;140029;-85
2023/07/09 12:35:57;;;;;;;4.40;2.60;;;;;;;35.85;26.08;100989.34;223256;1266;139093;-86
2023/07/09 12:41:00;;;;;;;6.00;2.90;;;;;;;36.13;25.71;100990.30;223126;1264;141292;-88
2023/07/09 12:46:01;;;;;;;4.60;1.90;;;;;;;36.07;26.00;100984.23;223664;1265;139005;-85
2023/07/09 12:51:07;;;;;;;4.20;2.00;;;;;;;35.94;25.81;100981.58;223062;1265;140519;-85
2023/07/09 12:56:13;;;;;;;5.90;2.30;;;;;;;35.62;25.79;100978.65;223337;1265;138756;-87
2023/07/09 13:01:16;;;;;;;2.60;1.70;;;;;;;35.12;25.73;100975.21;222771;1266;141209;-85
2023/07/09 13:06:35;;;;;;;4.30;2.40;;;;;;;34.99;26.38;100967.84;223448;1265;140297;-86
2023/07/09 13:11:36;;;;;;;3.30;2.10;;;;;;;35.14;26.91;100966.82;222944;1265;140163;-86
2023/07/09 13:16:40;;;;;;;4.10;2.40;;;;;;;34.93;26.29;100963.83;223399;1265;138830;-87
2023/07/09 13:21:41;;;;;;;4.50;2.20;;;;;;;34.67;26.64;100965.27;222894;1266;140557;-85
2023/07/09 13:26:42;;;;;;;4.20;2.10;;;;;;;34.50;27.30;100965.73;223387;1265;138682;-86
2023/07/09 13:31:44;;;;;;;3.40;1.90;;;;;;;34.44;27.09;100963.02;222879;1265;140097;-85
2023/07/09 13:36:45;;;;;;;5.20;2.80;;;;;;;34.59;27.20;100956.79;223407;1269;138748;-86
2023/07/09 13:41:48;;;;;;;4.30;2.20;;;;;;;34.90;27.25;100946.36;222907;1265;140079;-88
2023/07/09 13:46:48;;;;;;;4.30;2.40;;;;;;;35.38;26.38;100937.98;223407;1265;137840;-87
2023/07/09 13:51:52;;;;;;;3.30;2.40;;;;;;;35.33;26.76;100930.80;223050;1266;140297;-87
2023/07/09 13:56:52;;;;;;;4.10;2.10;;;;;;;35.29;26.62;100926.30;223571;1266;138922;-88
2023/07/09 14:01:56;;;;;;;4.00;2.10;;;;;;;34.84;25.93;100924.42;223030;1266;140206;-88
2023/07/09 14:06:56;;;;;;;3.60;2.20;;;;;;;34.43;26.87;100919.67;223650;1264;138847;-85
2023/07/09 14:11:57;;;;;;;4.40;2.20;;;;;;;34.15;27.14;100924.04;222939;1265;140690;-86
2023/07/09 14:16:59;;;;;;;4.60;2.00;;;;;;;33.82;27.86;100922.79;223484;1270;96215;-87
2023/07/09 14:21:59;;;;;;;6.30;3.60;;;;;;;34.09;27.63;100922.20;222862;1265;140077;-89
2023/07/09 14:26:59;;;;;;;4.20;2.50;;;;;;;34.10;26.99;100922.45;223393;1265;138775;-87
2023/07/09 14:32:00;;;;;;;4.80;3.00;;;;;;;33.83;27.93;100922.08;223059;1265;140115;-86
2023/07/09 14:37:01;;;;;;;7.10;2.90;;;;;;;33.86;27.10;100914.88;223528;1264;138472;-88
2023/07/09 14:42:01;;;;;;;4.30;2.10;;;;;;;33.94;27.81;100913.04;222801;1265;141422;-87
2023/07/09 14:47:09;;;;;;;5.30;2.40;;;;;;;33.69;27.46;100910.21;223293;1265;96413;-87
2023/07/09 14:52:17;;;;;;;5.70;2.30;;;;;;;33.60;28.38;100905.11;222795;1266;140309;-88
2023/07/09 14:57:21;;;;;;;4.90;2.30;;;;;;;33.99;27.45;100899.50;223359;1266;137732;-87
2023/07/09 15:02:36;;;;;;;8.60;2.60;;;;;;;33.87;27.50;100900.80;222980;1265;139370;-85
2023/07/09 15:07:36;;;;;;;4.30;2.60;;;;;;;33.29;27.35;100899.67;223605;1265;137941;-88
2023/07/09 15:12:37;;;;;;;4.50;2.30;;;;;;;32.82;28.44;100898.64;223113;1266;140093;-88
2023/07/09 15:17:37;;;;;;;5.00;2.40;;;;;;;32.72;28.78;100894.23;223698;1264;96254;-88
2023/07/09 15:22:37;;;;;;;4.00;2.30;;;;;;;33.06;28.10;100895.30;223089;1265;139946;-87
2023/07/09 15:27:38;;;;;;;6.50;2.70;;;;;;;32.69;28.45;100890.64;223420;1265;138275;-89
2023/07/09 15:32:38;;;;;;;4.40;2.20;;;;;;;32.59;29.25;100889.40;222996;1265;141178;-89
2023/07/09 15:37:39;;;;;;;5.90;2.30;;;;;;;32.71;28.95;100883.59;223451;1265;137489;-88
2023/07/09 15:42:39;;;;;;;5.00;2.50;;;;;;;32.74;29.08;100880.96;223065;1264;140621;-89
2023/07/09 15:47:40;;;;;;;4.70;2.50;;;;;;;32.27;28.94;100880.80;223669;1264;96116;-91
2023/07/09 15:52:40;;;;;;;4.90;2.30;;;;;;;31.70;28.82;100880.56;222890;1265;141942;-87
2023/07/09 15:57:41;;;;;;;6.40;2.20;;;;;;;31.25;29.77;100875.76;223297;1266;138362;-86
2023/07/09 16:02:41;;;;;;;3.60;2.30;;;;;;;30.83;30.46;100874.17;222804;1266;140028;-86
2023/07/09 16:07:42;;;;;;;4.30;1.90;;;;;;;30.77;31.22;100868.81;223404;1265;138933;-88
2023/07/09 16:12:46;;;;;;;4.90;2.00;;;;;;;30.72;30.39;100868.46;222981;1266;139582;-88
2023/07/09 16:17:48;;;;;;;4.00;2.00;;;;;;;30.64;30.69;100866.06;223399;1269;99850;-89
2023/07/09 16:22:50;;;;;;;4.40;2.40;;;;;;;30.55;30.63;100863.95;222847;1266;140094;-87
2023/07/09 16:27:51;;;;;;;3.90;2.00;;;;;;;30.38;30.97;100861.74;223603;1269;138413;-87
2023/07/09 16:32:51;;;;;;;3.80;2.20;;;;;;;30.18;31.65;100856.79;223013;1264;141191;-87
2023/07/09 16:37:52;;;;;;;4.50;2.40;;;;;;;29.92;31.11;100856.08;223515;1268;138327;-89
2023/07/09 16:42:53;;;;;;;3.50;1.90;;;;;;;29.66;31.60;100854.29;222988;1267;140293;-88
2023/07/09 16:47:54;;;;;;;5.20;2.20;;;;;;;29.52;31.47;100847.67;223407;1265;138717;-87
2023/07/09 16:52:55;;;;;;;5.80;2.30;;;;;;;29.39;32.61;100840.71;222879;1265;139784;-88
2023/07/09 16:57:57;;;;;;;4.90;2.30;;;;;;;29.24;32.98;100842.43;223407;1266;138069;-87
2023/07/09 17:02:58;;;;;;;3.90;2.00;;;;;;;29.00;32.44;100840.44;223008;1268;140631;-88
2023/07/09 17:07:59;;;;;;;3.70;1.50;;;;;;;28.71;31.99;100842.59;223648;1264;138423;-88
2023/07/09 17:13:01;;;;;;;4.70;2.30;;;;;;;28.52;33.05;100846.61;222930;1267;140722;-88
2023/07/09 17:18:09;;;;;;;3.20;1.60;;;;;;;28.34;33.86;100843.00;223451;1267;138237;-89
2023/07/09 17:23:10;;;;;;;2.90;1.50;;;;;;;28.09;32.99;100845.41;222766;1267;142313;-88
2023/07/09 17:28:18;;;;;;;3.80;1.70;;;;;;;27.89;32.60;100844.73;223666;1264;139825;-87
2023/07/09 17:33:19;;;;;;;3.60;1.90;;;;;;;27.76;33.07;100848.41;223006;1267;140603;-88
2023/07/09 17:38:21;;;;;;;3.60;1.70;;;;;;;27.63;33.13;100848.45;223629;1264;138759;-89
2023/07/09 17:43:24;;;;;;;3.30;1.60;;;;;;;27.51;33.78;100847.83;222936;1267;140159;-89
2023/07/09 17:48:31;;;;;;;6.80;1.70;;;;;;;27.39;33.24;100847.55;223401;1267;138990;-89
2023/07/09 17:53:34;;;;;;;3.40;1.60;;;;;;;27.25;33.45;100842.70;223277;1264;141662;-88
2023/07/09 17:58:38;;;;;;;4.20;2.10;;;;;;;27.12;34.26;100840.52;223557;1267;137834;-88
2023/07/09 18:03:38;;;;;;;6.40;1.70;;;;;;;26.98;34.38;100839.46;222921;1267;139743;-88
2023/07/09 18:08:39;;;;;;;5.50;1.30;;;;;;;26.84;35.59;100835.79;223532;1264;138583;-89
2023/07/09 18:13:40;;;;;;;3.00;1.40;;;;;;;26.68;34.80;100834.85;222911;1265;140058;-89
2023/07/09 18:18:40;;;;;;;5.50;1.60;;;;;;;26.54;36.07;100827.89;223517;1265;138885;-90
2023/07/09 18:23:40;;;;;;;6.10;1.80;;;;;;;26.41;37.68;100831.48;223008;1267;139914;-90
2023/07/09 18:28:44;;;;;;;4.80;1.60;;;;;;;26.24;36.97;100828.58;223645;1265;137938;-89
2023/07/09 18:33:45;;;;;;;4.60;2.00;;;;;;;26.05;36.87;100818.19;222793;1265;140187;-89
2023/07/09 18:38:45;;;;;;;2.60;1.30;;;;;;;25.83;37.63;100813.23;223451;1265;138274;-89
2023/07/09 18:43:47;;;;;;;4.20;1.60;;;;;;;25.60;38.15;100814.32;222897;1265;140730;-91
2023/07/09 18:48:48;;;;;;;3.90;1.50;;;;;;;25.42;37.61;100817.83;223462;1266;138736;-91
2023/07/09 18:53:52;;;;;;;3.80;1.80;;;;;;;25.26;37.71;100830.16;222877;1267;141034;-92
2023/07/09 18:58:53;;;;;;;3.40;1.80;;;;;;;25.13;37.45;100836.67;223145;1265;140536;-91
2023/07/09 19:03:53;;;;;;;4.70;1.80;;;;;;;25.03;37.22;100839.23;223064;1265;139477;-92
2023/07/09 19:08:54;;;;;;;3.40;1.60;;;;;;;24.96;37.54;100850.57;222773;1265;140825;-92
2023/07/09 19:13:55;;;;;;;5.80;1.70;;;;;;;24.91;37.68;100866.09;223547;1265;137980;-93
2023/07/09 19:18:56;;;;;;;4.40;1.60;;;;;;;24.75;40.06;100864.95;223024;1265;138715;-95
2023/07/09 19:23:57;;;;;;;4.70;1.60;;;;;;;24.51;40.80;100867.35;223393;1265;138799;-93
2023/07/09 19:28:58;;;;;;;3.80;1.60;;;;;;;24.30;41.44;100865.42;222965;1267;163523;-94
2023/07/09 19:33:58;;;;;;;4.40;1.40;;;;;;;24.16;42.12;100872.65;223593;1264;138524;-94
2023/07/09 19:38:59;;;;;;;3.80;1.70;;;;;;;24.05;43.28;100872.41;222861;1265;140404;-94
2023/07/09 19:43:59;;;;;;;4.70;1.50;;;;;;;23.95;44.12;100879.27;223589;1265;138517;-94
2023/07/09 19:49:00;;;;;;;8.20;1.90;;;;;;;23.79;44.94;100881.52;222813;1266;139255;-92
2023/07/09 19:54:01;;;;;;;3.40;1.50;;;;;;;23.55;44.82;100878.52;223322;1265;138417;-93
2023/07/09 19:59:01;;;;;;;3.20;1.60;;;;;;;23.31;45.37;100879.22;222840;1266;140034;-94
2023/07/09 20:04:02;;;;;;;3.60;1.60;;;;;;;23.09;45.69;100883.14;223428;1264;138295;-92
2023/07/09 20:09:11;;;;;;;3.90;1.70;;;;;;;22.87;46.44;100878.00;222852;1264;139733;-93
2023/07/09 20:14:14;;;;;;;4.00;1.50;;;;;;;22.67;47.70;100871.00;223490;1264;138476;-90
2023/07/09 20:19:15;;;;;;;2.40;1.30;;;;;;;22.50;48.22;100874.58;222791;1265;139505;-89
2023/07/09 20:24:18;;;;;;;5.40;1.80;;;;;;;22.44;48.83;100882.13;223324;1264;138585;-91
2023/07/09 20:29:19;;;;;;;4.70;1.90;;;;;;;22.30;48.73;100887.68;223073;1264;140631;-90
2023/07/09 20:34:22;;;;;;;4.70;2.10;;;;;;;22.04;49.07;100883.78;223298;1265;138302;-86
2023/07/09 20:39:24;;;;;;;3.60;1.80;;;;;;;21.83;49.64;100883.59;222821;1264;139916;-86
2023/07/09 20:44:31;;;;;;;7.60;2.00;;;;;;;21.63;49.82;100879.71;223443;1265;138777;-86
2023/07/09 20:49:36;;;;;;;4.00;1.60;;;;;;;21.45;50.41;100885.95;222867;1265;142780;-88
2023/07/09 20:54:37;;;;;;;5.40;2.10;;;;;;;21.30;51.01;100888.98;223393;1269;138647;-89
2023/07/09 20:59:38;;;;;;;5.70;2.00;;;;;;;21.13;51.62;100883.50;222944;1268;140928;-89
2023/07/09 21:04:39;;;;;;;5.50;1.80;;;;;;;21.03;52.51;100882.92;223452;1265;137826;-88
2023/07/09 21:09:39;;;;;;;4.70;1.90;;;;;;;20.90;53.06;100880.92;222876;1265;139559;-88
2023/07/09 21:14:40;;;;;;;5.60;2.30;;;;;;;20.75;54.01;100883.34;223440;1265;138012;-89
2023/07/09 21:19:40;;;;;;;4.00;2.00;;;;;;;20.61;54.60;100881.81;222877;1265;140099;-87
2023/07/09 21:24:42;;;;;;;5.20;2.00;;;;;;;20.46;55.28;100879.90;223348;1265;138004;-89
2023/07/09 21:29:43;;;;;;;5.00;2.00;;;;;;;20.34;56.26;100888.96;222999;1264;139914;-90
2023/07/09 21:34:43;;;;;;;6.30;1.90;;;;;;;20.20;56.03;100891.67;223367;1265;137817;-88
2023/07/09 21:39:44;;;;;;;4.30;2.00;;;;;;;20.08;56.22;100892.62;222872;1265;140041;-86
2023/07/09 21:44:44;;;;;;;4.10;1.70;;;;;;;19.98;57.08;100894.40;223494;1264;138728;-86
2023/07/09 21:49:45;;;;;;;4.40;2.10;;;;;;;19.95;56.74;100889.98;222932;1264;139768;-85
2023/07/09 21:54:48;;;;;;;5.40;2.10;;;;;;;19.93;57.37;100894.59;223358;1265;138182;-84
2023/07/09 21:59:49;;;;;;;9.70;2.40;;;;;;;19.91;55.48;100893.19;222995;1264;141984;-85
2023/07/09 22:04:50;;;;;;;5.10;2.30;;;;;;;19.95;54.04;100890.14;223443;1265;137869;-85
2023/07/09 22:09:55;;;;;;;4.60;1.70;;;;;;;20.00;53.42;100884.79;222886;1265;140755;-85
2023/07/09 22:14:59;;;;;;;4.40;1.70;;;;;;;20.03;53.34;100876.89;223496;1264;138414;-85
2023/07/09 22:19:59;;;;;;;6.00;2.40;;;;;;;20.07;52.81;100876.84;222975;1264;140817;-85
2023/07/09 22:25:02;;;;;;;6.90;2.30;;;;;;;20.10;53.02;100873.60;223510;1265;137953;-86
2023/07/09 22:30:03;;;;;;;6.80;2.30;;;;;;;20.11;52.88;100874.30;222962;1265;140702;-85
2023/07/09 22:35:10;;;;;;;4.90;2.10;;;;;;;20.14;52.92;100880.20;223612;1265;96312;-85
2023/07/09 22:40:22;;;;;;;6.50;2.60;;;;;;;20.17;53.06;100878.00;222536;1265;282736;-86
2023/07/09 22:45:28;;;;;;;5.30;2.10;;;;;;;20.20;53.19;100875.13;223501;1265;138824;-86
2023/07/09 22:50:38;;;;;;;11.20;2.90;;;;;;;20.19;53.24;100869.91;222859;1265;142551;-87
2023/07/09 22:55:40;;;;;;;8.00;2.60;;;;;;;20.14;53.47;100867.42;223433;1265;137047;-87